Aérodrome :
LOGIN :

S'inscrire | Disclaimer

   EN    FR    IT 

 










Légende :    VFR   VFR Marginal   IFR   IFR Intensif   IFR Très Intensif
Visi : 
Plafond : 
>= 8 km
>= 3000ft
5 à 8 km
1000 à 3000 ft
1500m à 5 km
500 à 1000 ft
800 à 1500m
200 à 500 ft
< 800m
< 200 ft
Symboles :   Orages  Brouillard  Fortes neiges  Fortes précipitations  Vent > 20 kt
SIGMETs :   Divers  Orages  Givrage  Turbulence  Onde Orograph.  Cendres Volcan.






- Altitude de l'aérodrome : 1197 ft
- Code IATA : SPM


ETAD - Spangdahlem Ab

DERNIER METAR :
  • 301929Z AUTO 27004KT 9999 -RA FEW005 SCT065 BKN095 15/11 A2993 RMK AO2 RAB28 SLP115 $

METARs EXPIRÉS :
  • 301928Z AUTO 26004KT 9999 FEW005 SCT065 BKN095 15/11 A2993 RMK AO2 SLP115 $
  • 301911Z 27006KT 9999 FEW065 BKN095 BKN120 15/11 A2992 RMK AO2A SLP112 $
  • 301856Z 28009KT 9999 SCT039 BKN060 BKN100 15/11 A2991 RMK AO2A RAB1756E1757DZB1757E08 SLP110 P0000 T01450113 $
  • 301756Z 30010KT 9999 FEW029 BKN039 BKN075 15/12 A2990 RMK AO2A PK WND 26026/03 RAB13E50 SLP108 P0002 60002 T01470124 10292 20146 53036 $
  • 301743Z 29010G19KT 9999 -RA FEW023 SCT029 BKN038 15/13 A2990 RMK AO2A RAB13 SLP108 $
  • 301728Z 28015KT 9999 -RA BKN019 BKN024 OVC042 15/13 A2990 RMK AO2A RAB13 CIG 018V024 CIG 019 RWY05 PRESRR SLP109 $
  • 301713Z 28018G26KT 9999 -RA OVC018 17/12 A2988 RMK AO2A RAB13 SLP101 $
  • 301656Z 27017G27KT 9999 FEW018 BKN070 BKN150 18/13 A2986 RMK AO2A PK WND 28028/41 PRESRR SLP094 T01770126 $
  • 301639Z 28019G28KT 9999 FEW050 BKN080 BKN130 21/15 A2984 RMK LTG DSNT N-NE PRESRR SLP086 $

TAF AMD TAF ETAD
Valide du 30 à 19h jusqu'au 01 à 18h UTC


301905Z 3019/0118 24009KT 9999 SCT040 BKN060 QNH2991INS
TEMPO 3019/3022 8000 -SHRA OVC030
BECMG 3022/3023 27006KT 8000 BR OVC015 QNH2994INS
BECMG 0105/0106 25009KT 9999 NSW SCT200 QNH3001INS TX15/3019Z TN12/0104Z



MET'MAP, la Météo Aéronautique d'un coup d'oeil ! - Copyright ORBIFLY Décembre 2007 - Disclaimer

ORBIFLY MET'MAP TEAM :

Programmation & Développement : Alexandra Zaïnal
Sur une idée originale de : Baudouin d'Aumeries
Soutien technique & logistique : Manuel Goepfert
Assistance : Marc-Olivier Méhu




SOURCES & CREDITS :

   NOAA